.
WxDataArchive / Data Records for 2015-09-07
2015-09-06 September 2015 2015-09-08

Data Records for Monday, 07 September 2015

Time	Temp	Chill	HIndex	Humid	Dewpt	 Wind 	HiWind	WindDir	Rain 	Barom
-----	----	-----	------	-----	-----	------	------	-------	-----	-----
00:00	71.5	71.5	71.5	86	67.1	0	0	---	0.00	29.998 
00:05	71.3	71.3	71.3	86	66.9	0	0	---	0.00	29.998 
00:10	71.1	71.1	71.1	86	66.7	0	0	---	0.00	29.998 
00:15	71.1	71.1	71.1	86	66.7	0	0	---	0.00	29.992 
00:20	70.9	70.9	70.9	86	66.5	0	0	---	0.00	29.992 
00:25	70.8	70.8	70.8	86	66.4	0	0	---	0.00	29.992 
00:30	70.8	70.8	70.8	86	66.4	0	0	---	0.00	29.992 
00:35	70.6	70.6	70.6	87	66.5	0	0	---	0.00	29.992 
00:40	70.6	70.6	70.6	87	66.5	0	0	---	0.00	29.992 
00:45	70.6	70.6	70.6	87	66.5	0	0	---	0.00	29.993 
00:50	70.4	70.4	70.4	87	66.3	0	0	---	0.00	29.993 
00:55	70.3	70.3	70.3	87	66.2	0	0	---	0.00	29.993 
01:00	70.3	70.3	70.3	87	66.2	0	0	---	0.00	29.991 
01:05	70.1	70.1	70.1	88	66.4	0	0	---	0.00	29.991 
01:10	70.1	70.1	70.1	87	66.0	0	0	---	0.00	29.991 
01:15	69.9	69.9	69.9	87	65.8	0	0	---	0.00	29.988 
01:20	69.9	69.9	69.9	88	66.2	0	0	---	0.00	29.988 
01:25	69.9	69.9	69.9	88	66.2	0	0	---	0.00	29.988 
01:30	69.9	69.9	69.9	87	65.8	0	0	---	0.00	29.986 
01:35	69.8	69.8	69.8	87	65.7	0	0	---	0.00	29.986 
01:40	69.8	69.8	69.8	87	65.7	0	0	---	0.00	29.986 
01:45	69.8	69.8	69.8	87	65.7	0	0	---	0.00	29.983 
01:50	69.8	69.8	69.8	87	65.7	0	0	---	0.00	29.983 
01:55	69.8	69.8	69.8	87	65.7	0	0	---	0.00	29.983 
02:00	69.8	69.8	69.8	86	65.4	0	0	---	0.00	29.983 
02:05	69.8	69.8	69.8	86	65.4	0	0	---	0.00	29.983 
02:10	69.8	69.8	69.8	86	65.4	0	0	---	0.00	29.983 
02:15	69.8	69.8	69.8	86	65.4	0	0	---	0.00	29.983 
02:20	69.6	69.6	69.6	85	64.9	0	0	---	0.00	29.983 
02:25	69.6	69.6	69.6	85	64.9	0	0	---	0.00	29.983 
02:30	69.6	69.6	69.6	85	64.9	0	0	---	0.00	29.986 
02:35	69.6	69.6	69.6	85	64.9	0	0	---	0.00	29.986 
02:40	69.6	69.6	69.6	85	64.9	0	0	---	0.00	29.986 
02:45	69.6	69.6	69.6	85	64.9	0	0	---	0.00	29.987 
02:50	69.6	69.6	69.6	85	64.9	0	0	---	0.00	29.987 
02:55	69.6	69.6	69.6	84	64.5	0	0	---	0.00	29.987 
03:00	69.6	69.6	69.6	84	64.5	0	0	---	0.00	29.985 
03:05	69.6	69.6	69.6	84	64.5	0	0	---	0.00	29.985 
03:10	69.6	69.6	69.6	84	64.5	0	0	---	0.00	29.985 
03:15	69.6	69.6	69.6	84	64.5	0	0	---	0.00	29.984 
03:20	69.6	69.6	69.6	84	64.5	0	0	---	0.00	29.984 
03:25	69.6	69.6	69.6	84	64.5	0	0	---	0.00	29.984 
03:30	69.6	69.6	69.6	84	64.5	0	0	---	0.00	29.986 
03:35	69.6	69.6	69.6	84	64.5	0	0	---	0.00	29.986 
03:40	69.6	69.6	69.6	84	64.5	0	0	---	0.00	29.986 
03:45	69.6	69.6	69.6	84	64.5	0	0	---	0.00	29.984 
03:50	69.6	69.6	69.6	84	64.5	0	0	---	0.00	29.984 
03:55	69.4	69.4	69.4	85	64.7	0	0	---	0.00	29.984 
04:00	69.4	69.4	69.4	85	64.7	0	0	---	0.00	29.985 
04:05	69.4	69.4	69.4	85	64.7	0	0	---	0.00	29.985 
04:10	69.3	69.3	69.3	85	64.6	0	0	---	0.00	29.985 
04:15	69.1	69.1	69.1	85	64.4	0	0	---	0.00	29.980 
04:20	69.1	69.1	69.1	86	64.7	0	0	---	0.00	29.980 
04:25	69.1	69.1	69.1	86	64.7	0	0	---	0.00	29.980 
04:30	69.1	69.1	69.1	86	64.7	0	0	---	0.00	29.979 
04:35	69.3	69.3	69.3	85	64.6	0	0	---	0.00	29.979 
04:40	69.4	69.4	69.4	86	65.0	0	0	---	0.00	29.979 
04:45	69.4	69.4	69.4	86	65.0	0	0	---	0.00	29.981 
04:50	69.4	69.4	69.4	86	65.0	0	0	---	0.00	29.981 
04:55	69.3	69.3	69.3	86	64.9	0	0	---	0.00	29.981 
05:00	69.3	69.3	69.3	86	64.9	0	0	---	0.00	29.975 
05:05	69.1	69.1	69.1	86	64.7	0	0	---	0.00	29.975 
05:10	69.1	69.1	69.1	86	64.7	0	0	---	0.00	29.975 
05:15	68.9	68.9	68.9	86	64.5	0	0	---	0.00	29.979 
05:20	68.9	68.9	68.9	87	64.9	0	0	---	0.00	29.979 
05:25	68.8	68.8	68.8	87	64.8	0	0	---	0.00	29.979 
05:30	68.8	68.8	68.8	87	64.8	0	0	---	0.00	29.979 
05:35	68.8	68.8	68.8	88	65.1	0	0	---	0.00	29.979 
05:40	68.8	68.8	68.8	87	64.8	0	0	---	0.00	29.979 
05:45	68.8	68.8	68.8	87	64.8	0	0	---	0.00	29.979 
05:50	68.8	68.8	68.8	87	64.8	0	0	---	0.00	29.979 
05:55	68.8	68.8	68.8	88	65.1	0	0	---	0.00	29.979 
06:00	68.8	68.8	68.8	88	65.1	0	0	---	0.00	29.979 
06:05	68.6	68.6	68.6	88	64.9	0	0	---	0.00	29.979 
06:10	68.6	68.6	68.6	88	64.9	0	0	---	0.00	29.979 
06:15	68.4	68.4	68.4	88	64.7	0	0	---	0.00	29.982 
06:20	68.4	68.4	68.4	88	64.7	0	0	---	0.00	29.982 
06:25	68.3	68.3	68.3	88	64.6	0	0	---	0.00	29.982 
06:30	68.3	68.3	68.3	88	64.6	0	0	---	0.00	29.990 
06:35	68.1	68.1	68.1	89	64.7	0	0	---	0.00	29.990 
06:40	68.3	68.3	68.3	89	64.9	0	0	---	0.00	29.990 
06:45	68.3	68.3	68.3	89	64.9	0	0	---	0.00	29.992 
06:50	68.4	68.4	68.4	89	65.0	0	0	---	0.00	29.992 
06:55	68.4	68.4	68.4	89	65.0	0	0	---	0.00	29.992 
07:00	68.4	68.4	68.4	89	65.0	0	0	---	0.00	30.002 
07:05	68.6	68.6	68.6	88	64.9	0	0	---	0.00	30.002 
07:10	68.8	68.8	68.8	88	65.1	0	0	---	0.00	30.002 
07:15	68.8	68.8	68.8	88	65.1	0	0	---	0.00	30.005 
07:20	68.8	68.8	68.8	88	65.1	0	0	---	0.00	30.005 
07:25	68.8	68.8	68.8	88	65.1	0	0	---	0.00	30.005 
07:30	68.6	68.6	68.6	89	65.2	0	0	---	0.00	30.007 
07:35	68.6	68.6	68.6	89	65.2	0	0	---	0.00	30.007 
07:40	68.6	68.6	68.6	89	65.2	0	0	---	0.00	30.007 
07:45	68.6	68.6	68.6	89	65.2	0	0	---	0.00	30.010 
07:50	68.6	68.6	68.6	89	65.2	0	0	---	0.00	30.010 
07:55	68.6	68.6	68.6	89	65.2	0	0	---	0.00	30.010 
08:00	68.6	68.6	68.6	89	65.2	0	0	---	0.00	30.015 
08:05	68.8	68.8	68.8	89	65.4	0	0	---	0.00	30.015 
08:10	68.9	68.9	68.9	89	65.5	0	0	---	0.00	30.015 
08:15	69.1	69.1	69.1	89	65.7	0	0	---	0.00	30.020 
08:20	69.3	69.3	69.3	89	65.9	0	0	---	0.00	30.020 
08:25	69.6	69.6	69.6	89	66.2	0	0	---	0.00	30.020 
08:30	69.9	69.9	69.9	88	66.2	0	0	---	0.00	30.019 
08:35	70.3	70.3	70.3	88	66.6	0	0	---	0.00	30.019 
08:40	70.8	70.8	70.8	87	66.7	0	0	---	0.00	30.019 
08:45	71.3	71.3	71.3	87	67.2	0	0	---	0.00	30.018 
08:50	71.8	71.8	71.8	86	67.4	0	0	---	0.00	30.018 
08:55	72.1	72.1	72.1	85	67.3	0	0	---	0.00	30.018 
09:00	72.7	72.7	72.7	84	67.6	0	1	112	0.00	30.019 
09:05	73.2	73.2	73.2	83	67.7	0	0	---	0.00	30.019 
09:10	73.7	73.7	73.7	81	67.5	0	0	---	0.00	30.019 
09:15	74.0	74.0	74.0	81	67.8	0	1	112	0.00	30.019 
09:20	74.6	74.6	74.6	80	68.0	0	0	---	0.00	30.019 
09:25	75.1	75.1	75.8	79	68.1	0	0	---	0.00	30.019 
09:30	75.3	75.3	76.3	77	67.6	0	1	112	0.00	30.016 
09:35	75.6	75.6	76.6	78	68.2	0	1	112	0.00	30.016 
09:40	76.0	76.0	77.2	77	68.3	0	1	112	0.00	30.016 
09:45	76.3	76.3	77.6	77	68.5	0	0	---	0.00	30.014 
09:50	76.7	76.7	78.2	76	68.5	0	0	---	0.00	30.014 
09:55	77.2	77.2	79.0	75	68.6	0	1	112	0.00	30.014 
10:00	77.6	77.6	79.6	74	68.6	0	1	112	0.00	30.014 
10:05	77.9	77.9	80.0	74	68.9	0	1	112	0.00	30.014 
10:10	78.3	78.3	80.6	73	68.9	0	1	112	0.00	30.014 
10:15	78.8	78.8	81.3	73	69.4	0	1	112	0.00	30.015 
10:20	79.6	79.6	82.4	71	69.3	0	1	112	0.00	30.015 
10:25	80.1	80.1	83.0	69	69.0	0	2	112	0.00	30.015 
10:30	80.7	80.7	83.7	67	68.7	0	1	112	0.00	30.017 
10:35	81.1	81.1	84.3	67	69.1	0	2	112	0.00	30.017 
10:40	81.6	81.6	84.9	66	69.1	0	1	112	0.00	30.017 
10:45	82.2	82.2	85.7	65	69.2	0	1	112	0.00	30.016 
10:50	82.6	82.6	86.4	65	69.6	0	2	112	0.00	30.016 
10:55	83.0	83.0	86.6	63	69.1	0	3	112	0.00	30.016 
11:00	83.4	83.4	87.3	63	69.5	0	1	112	0.00	30.010 
11:05	83.6	83.6	87.4	62	69.2	1	3	112	0.00	30.010 
11:10	83.8	83.8	87.5	61	68.9	0	1	112	0.00	30.010 
11:15	84.0	84.0	87.8	61	69.1	0	1	112	0.00	30.004 
11:20	84.1	84.1	87.7	60	68.7	0	2	112	0.00	30.004 
11:25	84.3	84.3	88.6	62	69.8	0	1	112	0.00	30.004 
11:30	84.5	84.5	89.0	62	70.0	0	2	112	0.00	30.003 
11:35	85.5	85.5	90.2	60	70.0	0	2	112	0.00	30.003 
11:40	86.1	86.1	89.9	56	68.5	0	1	112	0.00	30.003 
11:45	86.5	86.5	90.6	56	68.9	0	2	112	0.00	30.002 
11:50	86.3	86.3	89.6	54	67.7	1	3	112	0.00	30.002 
11:55	86.5	86.5	90.3	55	68.4	0	2	112	0.00	30.002 
12:00	86.7	86.7	91.3	57	69.6	0	3	112	0.00	30.003 
12:05	86.7	86.7	90.3	54	68.0	1	3	292	0.00	30.003 
12:10	86.7	86.7	90.6	55	68.6	1	3	292	0.00	30.003 
12:15	87.2	87.2	92.3	57	70.1	0	1	292	0.00	30.004 
12:20	87.2	87.2	91.5	55	69.0	1	3	292	0.00	30.004 
12:25	87.4	87.4	91.5	54	68.7	1	3	292	0.00	30.004 
12:30	87.4	87.4	91.5	54	68.7	1	3	292	0.00	30.003 
12:35	87.4	87.4	90.7	52	67.6	1	3	292	0.00	30.003 
12:40	87.6	87.6	91.5	53	68.3	1	3	292	0.00	30.003 
12:45	88.2	88.2	92.9	54	69.4	0	3	292	0.00	30.000 
12:50	88.2	88.2	92.1	52	68.3	0	2	292	0.00	30.000 
12:55	88.0	88.0	91.4	51	67.6	2	5	292	0.00	30.000 
13:00	87.8	87.8	91.1	51	67.4	2	4	270	0.00	29.996 
13:05	88.4	88.4	92.9	53	69.1	1	3	270	0.00	29.996 
13:10	88.6	88.6	93.3	53	69.2	1	3	270	0.00	29.996 
13:15	88.8	88.8	92.4	50	67.7	1	3	270	0.00	29.987 
13:20	89.3	89.3	92.5	48	67.0	1	3	270	0.00	29.987 
13:25	89.0	89.0	92.4	49	67.3	1	2	270	0.00	29.987 
13:30	89.5	89.5	93.7	50	68.4	0	2	270	0.00	29.982 
13:35	89.9	89.9	94.4	50	68.7	0	4	270	0.00	29.982 
13:40	90.1	90.1	94.8	50	68.9	0	3	270	0.00	29.982 
13:45	90.1	90.1	93.5	47	67.1	0	3	22	0.00	29.979 
13:50	89.7	89.7	92.4	46	66.1	2	4	292	0.00	29.979 
13:55	89.5	89.5	92.8	48	67.2	0	3	292	0.00	29.979 
14:00	89.7	89.7	93.2	48	67.4	1	2	292	0.00	29.975 
14:05	89.7	89.7	92.8	47	66.7	1	3	270	0.00	29.975 
14:10	89.9	89.9	93.1	47	66.9	0	2	270	0.00	29.975 
14:15	89.9	89.9	93.5	48	67.5	0	2	270	0.00	29.970 
14:20	90.3	90.3	93.8	47	67.3	0	3	90	0.00	29.970 
14:25	90.3	90.3	93.0	45	66.0	1	3	90	0.00	29.970 
14:30	89.9	89.9	93.1	47	66.9	1	3	338	0.00	29.961 
14:35	89.9	89.9	94.4	50	68.7	0	2	315	0.00	29.961 
14:40	90.3	90.3	95.2	50	69.1	0	1	315	0.00	29.961 
14:45	90.5	90.5	94.2	47	67.5	0	2	338	0.00	29.957 
14:50	90.5	90.5	94.2	47	67.5	0	2	338	0.00	29.957 
14:55	90.3	90.3	93.8	47	67.3	1	4	270	0.00	29.957 
15:00	90.1	90.1	93.5	47	67.1	1	4	270	0.00	29.955 
15:05	89.9	89.9	93.1	47	66.9	0	2	270	0.00	29.955 
15:10	89.9	89.9	93.5	48	67.5	0	2	292	0.00	29.955 
15:15	89.9	89.9	93.1	47	66.9	0	3	45	0.00	29.955 
15:20	89.7	89.7	93.2	48	67.4	1	3	292	0.00	29.955 
15:25	89.3	89.3	91.7	46	65.8	0	2	292	0.00	29.955 
15:30	89.0	89.0	91.6	47	66.1	1	2	292	0.00	29.952 
15:35	89.0	89.0	92.8	50	67.9	0	1	315	0.00	29.952 
15:40	89.3	89.3	92.1	47	66.4	0	2	315	0.00	29.952 
15:45	89.7	89.7	92.8	47	66.7	0	3	315	0.00	29.946 
15:50	89.9	89.9	93.5	48	67.5	0	1	315	0.00	29.946 
15:55	89.9	89.9	92.7	46	66.3	0	2	315	0.00	29.946 
16:00	89.7	89.7	92.8	47	66.7	0	2	315	0.00	29.941 
16:05	89.5	89.5	92.8	48	67.2	0	2	315	0.00	29.941 
16:10	89.3	89.3	92.5	48	67.0	0	1	315	0.00	29.941 
16:15	89.5	89.5	92.4	47	66.6	1	3	315	0.00	29.939 
16:20	89.5	89.5	91.7	45	65.3	0	2	315	0.00	29.939 
16:25	89.3	89.3	92.1	47	66.4	0	1	315	0.00	29.939 
16:30	89.3	89.3	91.7	46	65.8	0	2	315	0.00	29.934 
16:35	89.5	89.5	91.7	45	65.3	1	4	112	0.00	29.934 
16:40	89.5	89.5	91.7	45	65.3	1	3	292	0.00	29.934 
16:45	89.5	89.5	92.1	46	65.9	1	3	315	0.00	29.928 
16:50	89.5	89.5	91.7	45	65.3	0	4	292	0.00	29.928 
16:55	89.5	89.5	91.7	45	65.3	1	3	292	0.00	29.928 
17:00	89.5	89.5	92.1	46	65.9	1	3	292	0.00	29.928 
17:05	89.5	89.5	92.1	46	65.9	1	3	292	0.00	29.928 
17:10	89.3	89.3	91.7	46	65.8	1	3	292	0.00	29.928 
17:15	89.0	89.0	91.6	47	66.1	1	2	315	0.00	29.924 
17:20	89.0	89.0	91.6	47	66.1	0	2	315	0.00	29.924 
17:25	88.8	88.8	90.9	46	65.3	0	3	315	0.00	29.924 
17:30	88.8	88.8	90.9	46	65.3	0	1	315	0.00	29.923 
17:35	88.6	88.6	91.0	47	65.7	0	2	315	0.00	29.923 
17:40	88.6	88.6	91.3	48	66.4	0	1	315	0.00	29.923 
17:45	88.6	88.6	91.0	47	65.7	0	3	68	0.00	29.920 
17:50	88.8	88.8	91.3	47	65.9	0	2	68	0.00	29.920 
17:55	88.8	88.8	91.3	47	65.9	0	2	68	0.00	29.920 
18:00	89.0	89.0	91.2	46	65.5	0	3	270	0.00	29.918 
18:05	89.0	89.0	91.2	46	65.5	0	1	270	0.00	29.918 
18:10	88.8	88.8	91.3	47	65.9	0	2	292	0.00	29.918 
18:15	88.6	88.6	91.0	47	65.7	0	1	292	0.00	29.919 
18:20	88.2	88.2	90.7	48	66.0	0	2	292	0.00	29.919 
18:25	88.0	88.0	90.7	49	66.4	0	1	292	0.00	29.919 
18:30	87.6	87.6	90.4	50	66.6	0	1	292	0.00	29.915 
18:35	87.4	87.4	89.7	49	65.9	0	1	292	0.00	29.915 
18:40	87.4	87.4	90.1	50	66.4	0	1	292	0.00	29.915 
18:45	87.2	87.2	90.1	51	66.8	0	0	---	0.00	29.920 
18:50	87.0	87.0	90.1	52	67.2	0	2	292	0.00	29.920 
18:55	86.7	86.7	89.3	51	66.4	0	2	292	0.00	29.920 
19:00	86.5	86.5	88.9	51	66.2	0	0	---	0.00	29.919 
19:05	86.3	86.3	88.3	50	65.4	0	1	292	0.00	29.919 
19:10	86.3	86.3	88.6	51	66.0	0	1	292	0.00	29.919 
19:15	86.1	86.1	88.3	51	65.8	0	0	---	0.00	29.924 
19:20	85.9	85.9	88.3	52	66.2	0	0	---	0.00	29.924 
19:25	85.7	85.7	88.3	53	66.6	0	1	292	0.00	29.924 
19:30	85.5	85.5	88.0	53	66.4	0	0	---	0.00	29.926 
19:35	85.1	85.1	87.7	54	66.6	0	0	---	0.00	29.926 
19:40	84.9	84.9	87.3	54	66.4	0	0	---	0.00	29.926 
19:45	84.5	84.5	87.0	55	66.5	0	0	---	0.00	29.932 
19:50	84.1	84.1	86.4	55	66.2	0	0	---	0.00	29.932 
19:55	84.0	84.0	86.5	56	66.6	0	0	---	0.00	29.932 
20:00	83.6	83.6	86.4	58	67.2	0	0	---	0.00	29.935 
20:05	83.2	83.2	86.0	59	67.4	0	0	---	0.00	29.935 
20:10	82.8	82.8	85.6	60	67.5	0	0	---	0.00	29.935 
20:15	82.4	82.4	85.0	60	67.1	0	0	---	0.00	29.935 
20:20	82.0	82.0	84.6	61	67.2	0	0	---	0.00	29.935 
20:25	81.6	81.6	84.2	62	67.3	0	0	---	0.00	29.935 
20:30	81.2	81.2	83.8	63	67.4	0	0	---	0.00	29.940 
20:35	81.1	81.1	83.8	64	67.7	0	0	---	0.00	29.940 
20:40	80.7	80.7	83.4	65	67.8	0	0	---	0.00	29.940 
20:45	80.3	80.3	82.8	65	67.4	0	0	---	0.00	29.942 
20:50	80.1	80.1	82.6	66	67.7	0	0	---	0.00	29.942 
20:55	79.8	79.8	82.3	67	67.8	0	0	---	0.00	29.942 
21:00	79.4	79.4	81.7	67	67.5	0	0	---	0.00	29.944 
21:05	79.2	79.2	81.6	69	68.1	0	0	---	0.00	29.944 
21:10	78.8	78.8	81.1	70	68.2	0	0	---	0.00	29.944 
21:15	78.6	78.6	80.9	71	68.4	0	0	---	0.00	29.946 
21:20	78.5	78.5	80.8	72	68.7	0	0	---	0.00	29.946 
21:25	78.1	78.1	80.3	73	68.7	0	0	---	0.00	29.946 
21:30	77.9	77.9	80.0	74	68.9	0	0	---	0.00	29.947 
21:35	77.7	77.7	79.7	74	68.7	0	0	---	0.00	29.947 
21:40	77.6	77.6	79.6	75	69.0	0	0	---	0.00	29.947 
21:45	77.4	77.4	79.3	76	69.2	0	0	---	0.00	29.949 
21:50	77.2	77.2	79.0	76	69.0	0	0	---	0.00	29.949 
21:55	77.0	77.0	78.7	77	69.2	0	0	---	0.00	29.949 
22:00	76.8	76.8	78.3	78	69.4	0	0	---	0.00	29.953 
22:05	76.7	76.7	78.2	78	69.3	0	0	---	0.00	29.953 
22:10	76.5	76.5	77.8	79	69.5	0	0	---	0.00	29.953 
22:15	76.3	76.3	77.5	79	69.3	0	0	---	0.00	29.952 
22:20	76.3	76.3	77.5	80	69.7	0	0	---	0.00	29.952 
22:25	76.1	76.1	77.1	80	69.5	0	0	---	0.00	29.952 
22:30	76.0	76.0	76.9	81	69.7	0	0	---	0.00	29.954 
22:35	75.8	75.8	76.6	81	69.5	0	0	---	0.00	29.954 
22:40	75.8	75.8	76.6	81	69.5	0	0	---	0.00	29.954 
22:45	75.6	75.6	76.2	82	69.7	0	0	---	0.00	29.952 
22:50	75.6	75.6	76.2	82	69.7	0	0	---	0.00	29.952 
22:55	75.6	75.6	76.2	82	69.7	0	0	---	0.00	29.952 
23:00	75.6	75.6	76.2	82	69.7	0	0	---	0.00	29.952 
23:05	75.6	75.6	76.2	82	69.7	0	0	---	0.00	29.952 
23:10	75.8	75.8	76.5	82	69.9	0	0	---	0.00	29.952 
23:15	75.8	75.8	76.5	82	69.9	0	0	---	0.00	29.944 
23:20	75.8	75.8	76.5	82	69.9	0	0	---	0.00	29.944 
23:25	75.6	75.6	76.2	82	69.7	0	0	---	0.00	29.944 
23:30	75.6	75.6	76.2	82	69.7	0	0	---	0.00	29.944 
23:35	75.4	75.4	75.9	82	69.5	0	0	---	0.00	29.944 
23:40	75.3	75.3	75.6	83	69.8	0	0	---	0.00	29.944 
23:45	75.3	75.3	75.6	83	69.8	0	0	---	0.00	29.938 
23:50	75.1	75.1	75.2	84	69.9	0	0	---	0.00	29.938 
23:55	75.1	75.1	75.2	84	69.9	0	0	---	0.00	29.938 

CoCoRaHS
IN-AL-39
A2 Web Hosting
Creative Commons License
GoDaddy
search engine by freefind advanced

loaded 2018-11-20 09:29:42 • last modified 2010-11-18 10:43:29
Privacy PolicyDisclaimer
• wx.awcolley.com is powered by PmWiki v.2002016 •
• all content (unless otherwise noted) © 2018 A W Colley